Time;durP1;ratioP1;P1;durP2;ratioP2;P2;SDS_P1;SDS_P2;PMS_P1;PMS_P2;Temp;Humidity;BMP_temperature;BMP_pressure;BME280_temperature;BME280_humidity;BME280_pressure;Samples;Min_cycle;Max_cycle;Signal;HPM_P1;HPM_P2
2021/12/05 00:18:57;;;;;;;2.10;1.55;;;2.90;99.90;;;;;;5032989;28;20196;-71
2021/12/05 00:24:23;;;;;;;1.48;1.20;;;2.90;99.90;;;;;;5017340;28;20217;-72
2021/12/05 00:26:57;;;;;;;3.63;1.55;;;2.90;99.90;;;;;;5031800;28;20288;-72
2021/12/05 00:29:33;;;;;;;3.85;1.80;;;2.90;99.90;;;;;;5032588;28;20803;-71
2021/12/05 00:32:08;;;;;;;3.83;1.75;;;2.80;99.90;;;;;;5032648;28;20296;-71
2021/12/05 00:35:13;;;;;;;12.75;1.48;;;2.70;99.90;;;;;;5031631;28;20237;-71
2021/12/05 00:43:39;;;;;;;6.35;3.35;;;2.60;99.90;;;;;;5032368;28;20692;-71
2021/12/05 00:46:19;;;;;;;1.83;1.25;;;2.60;99.90;;;;;;5033026;28;20706;-71
2021/12/05 00:49:11;;;;;;;3.50;1.85;;;2.70;99.90;;;;;;5032226;28;20209;-71
2021/12/05 00:52:16;;;;;;;2.35;1.40;;;2.70;99.90;;;;;;5032008;28;20297;-71
2021/12/05 00:57:49;;;;;;;4.95;1.70;;;2.60;99.90;;;;;;5031301;28;20241;-71
2021/12/05 01:00:40;;;;;;;2.75;1.60;;;2.70;99.90;;;;;;5032208;28;20574;-71
2021/12/05 01:06:44;;;;;;;1.75;1.58;;;2.70;99.90;;;;;;4996242;28;20745;-71
2021/12/05 01:12:12;;;;;;;4.50;1.40;;;2.70;99.90;;;;;;5031380;28;20197;-71
2021/12/05 01:14:57;;;;;;;3.20;1.85;;;2.70;99.90;;;;;;5031740;28;20734;-71
2021/12/05 01:17:28;;;;;;;2.40;1.50;;;2.70;99.90;;;;;;5031879;28;20726;-71
2021/12/05 01:19:57;;;;;;;2.33;1.70;;;2.70;99.90;;;;;;5031950;28;20202;-71
2021/12/05 01:22:25;;;;;;;3.50;1.80;;;2.70;99.90;;;;;;5031262;28;20219;-71
2021/12/05 01:25:01;;;;;;;6.47;1.55;;;2.60;99.90;;;;;;5032072;28;20280;-71
2021/12/05 01:27:38;;;;;;;3.25;1.77;;;2.60;99.90;;;;;;5031922;28;20296;-71
2021/12/05 01:30:12;;;;;;;5.53;1.40;;;2.70;99.90;;;;;;5031659;28;20205;-71
2021/12/05 01:32:50;;;;;;;5.05;2.45;;;2.70;99.90;;;;;;5031038;28;20210;-71
2021/12/05 01:35:29;;;;;;;2.80;1.52;;;2.60;99.90;;;;;;5031658;28;20205;-71
2021/12/05 01:38:05;;;;;;;3.38;1.90;;;2.60;99.90;;;;;;5031672;28;20201;-71
2021/12/05 01:40:46;;;;;;;3.20;1.52;;;2.50;99.90;;;;;;5031614;28;20197;-71
2021/12/05 01:46:31;;;;;;;1.95;1.30;;;2.50;99.90;;;;;;5119749;22;20291;-93
2021/12/05 01:54:56;;;;;;;3.85;1.60;;;2.60;99.90;;;;;;5072785;28;20233;-95
2021/12/05 02:07:46;;;;;;;4.43;1.70;;;2.50;99.90;;;;;;5075027;28;20181;-95
2021/12/05 02:09:03;;;;;;;4.75;1.52;;;2.50;99.90;;;;;;5071738;28;20291;-95
2021/12/05 02:33:52;;;;;;;2.17;1.60;;;2.40;99.90;;;;;;5058044;28;20363;-95
2021/12/05 02:36:40;;;;;;;2.70;1.70;;;2.30;99.90;;;;;;5057849;28;20241;-95
2021/12/05 02:39:27;;;;;;;2.90;1.60;;;2.30;99.90;;;;;;5058454;28;20200;-95
2021/12/05 02:41:56;;;;;;;9.43;1.85;;;2.30;99.90;;;;;;5057683;28;20712;-95
2021/12/05 02:44:25;;;;;;;3.83;1.75;;;2.20;99.90;;;;;;5059670;28;20221;-94
2021/12/05 02:46:59;;;;;;;2.08;1.40;;;2.20;99.90;;;;;;5062357;28;20197;-94
2021/12/05 02:49:28;;;;;;;2.90;1.60;;;2.30;99.90;;;;;;5062514;28;20204;-95
2021/12/05 02:51:58;;;;;;;5.05;1.92;;;2.30;99.90;;;;;;5061743;28;20209;-94
2021/12/05 02:54:33;;;;;;;2.58;1.55;;;2.40;99.90;;;;;;5063317;28;20316;-94
2021/12/05 02:57:01;;;;;;;5.00;1.65;;;2.40;99.90;;;;;;5062440;28;20581;-94
2021/12/05 02:59:41;;;;;;;3.20;2.05;;;2.40;99.90;;;;;;5067181;28;20201;-94
2021/12/05 03:02:12;;;;;;;4.60;1.60;;;2.40;99.90;;;;;;5063498;28;20201;-95
2021/12/05 03:04:43;;;;;;;2.33;1.70;;;2.40;99.90;;;;;;5066431;28;20205;-95
2021/12/05 03:07:11;;;;;;;7.05;2.30;;;2.40;99.90;;;;;;5082305;28;20193;-95
2021/12/05 03:09:42;;;;;;;4.82;1.70;;;2.40;99.90;;;;;;5082228;28;20189;-95
2021/12/05 03:12:16;;;;;;;4.10;1.63;;;2.40;99.90;;;;;;5082354;28;20181;-96
2021/12/05 03:14:47;;;;;;;3.17;1.50;;;2.50;99.90;;;;;;5082206;28;20213;-95
2021/12/05 03:17:16;;;;;;;2.63;1.63;;;2.50;99.90;;;;;;5081654;28;20197;-95
2021/12/05 03:19:44;;;;;;;3.45;1.85;;;2.50;99.90;;;;;;5082147;28;20196;-96
2021/12/05 03:22:11;;;;;;;3.55;1.40;;;2.50;99.90;;;;;;5081132;28;20197;-95
2021/12/05 03:24:38;;;;;;;5.32;1.50;;;2.50;99.90;;;;;;5090782;22;20335;-71
2021/12/05 03:27:06;;;;;;;2.70;1.85;;;2.50;99.90;;;;;;5078403;28;20196;-70
2021/12/05 03:29:33;;;;;;;2.60;1.90;;;2.50;99.90;;;;;;5077399;28;20196;-68
2021/12/05 03:32:00;;;;;;;4.05;1.85;;;2.50;99.90;;;;;;5073062;28;20196;-68
2021/12/05 03:34:27;;;;;;;3.30;1.25;;;2.50;99.90;;;;;;5073465;28;20216;-68
2021/12/05 03:36:57;;;;;;;3.95;1.38;;;2.50;99.90;;;;;;5073410;28;20263;-68
2021/12/05 03:39:24;;;;;;;6.10;1.90;;;2.60;99.90;;;;;;5073677;28;20215;-68
2021/12/05 03:41:53;;;;;;;4.88;1.70;;;2.60;99.90;;;;;;5072618;28;20568;-68
2021/12/05 03:44:24;;;;;;;4.70;1.58;;;2.50;99.90;;;;;;5073637;28;20244;-68
2021/12/05 03:46:54;;;;;;;6.43;1.75;;;2.50;99.90;;;;;;5073038;28;20196;-68
2021/12/05 03:49:21;;;;;;;4.05;1.42;;;2.50;99.90;;;;;;5073444;28;20288;-68
2021/12/05 03:51:51;;;;;;;1.85;1.50;;;2.50;99.90;;;;;;5072806;28;20283;-68
2021/12/05 03:54:18;;;;;;;3.75;1.60;;;2.50;99.90;;;;;;5072875;28;20220;-68
2021/12/05 03:56:45;;;;;;;3.92;1.60;;;2.50;99.90;;;;;;5073207;28;20202;-67
2021/12/05 03:59:13;;;;;;;3.30;2.00;;;2.50;99.90;;;;;;5072811;28;20201;-68
2021/12/05 04:01:42;;;;;;;1.65;1.40;;;2.40;99.90;;;;;;5072808;28;20211;-68
2021/12/05 04:04:11;;;;;;;2.25;1.40;;;2.40;99.90;;;;;;5072681;28;20220;-68
2021/12/05 04:06:39;;;;;;;2.03;1.80;;;2.40;99.90;;;;;;5073354;28;20295;-68
2021/12/05 04:09:09;;;;;;;3.53;2.00;;;2.50;99.90;;;;;;5072040;28;20203;-68
2021/12/05 04:11:40;;;;;;;4.93;1.58;;;2.40;99.90;;;;;;5072437;28;20201;-68
2021/12/05 04:14:11;;;;;;;3.88;1.90;;;2.50;99.90;;;;;;5072995;28;20228;-68
2021/12/05 04:16:38;;;;;;;1.73;1.42;;;2.40;99.90;;;;;;5073018;28;20237;-68
2021/12/05 04:19:07;;;;;;;2.35;1.35;;;2.40;99.90;;;;;;5072873;28;20211;-68
2021/12/05 04:21:36;;;;;;;4.22;1.33;;;2.40;99.90;;;;;;5072470;28;20200;-68
2021/12/05 04:24:05;;;;;;;4.18;1.90;;;2.50;99.90;;;;;;5072460;28;20702;-68
2021/12/05 04:26:34;;;;;;;4.65;1.50;;;2.40;99.90;;;;;;5072895;28;20208;-68
2021/12/05 04:29:01;;;;;;;4.80;1.90;;;2.50;99.90;;;;;;5072424;28;20686;-68
2021/12/05 04:31:28;;;;;;;5.95;1.50;;;2.40;99.90;;;;;;5072511;28;20572;-68
2021/12/05 04:33:55;;;;;;;3.70;1.50;;;2.40;99.90;;;;;;5072468;28;20598;-68
2021/12/05 04:36:23;;;;;;;3.50;1.63;;;2.50;99.90;;;;;;5072616;28;20227;-68
2021/12/05 04:38:50;;;;;;;4.80;1.50;;;2.50;99.90;;;;;;5072737;28;20208;-68
2021/12/05 04:41:17;;;;;;;2.92;1.38;;;2.50;99.90;;;;;;5071859;28;20574;-68
2021/12/05 04:43:45;;;;;;;3.28;1.45;;;2.50;99.90;;;;;;5072606;28;20223;-68
2021/12/05 04:46:17;;;;;;;2.17;1.20;;;2.50;99.90;;;;;;5080279;28;20215;-67
2021/12/05 04:48:47;;;;;;;6.65;1.45;;;2.50;99.90;;;;;;5092939;28;20198;-68
2021/12/05 04:51:15;;;;;;;3.38;1.40;;;2.50;99.90;;;;;;5092187;28;20558;-68
2021/12/05 04:53:43;;;;;;;4.30;1.60;;;2.50;99.90;;;;;;5092345;28;20599;-68
2021/12/05 04:56:10;;;;;;;8.15;2.22;;;2.50;99.90;;;;;;5092329;28;20566;-68
2021/12/05 04:58:37;;;;;;;2.15;1.42;;;2.50;99.90;;;;;;5092409;28;20200;-68
2021/12/05 05:01:06;;;;;;;1.80;1.50;;;2.40;99.90;;;;;;5091742;28;20290;-68
2021/12/05 05:03:34;;;;;;;2.20;1.58;;;2.40;99.90;;;;;;5093186;28;20314;-68
2021/12/05 05:06:06;;;;;;;2.00;1.20;;;2.50;99.90;;;;;;5092098;28;20196;-68
2021/12/05 05:08:33;;;;;;;3.30;1.50;;;2.50;99.90;;;;;;5092495;28;20575;-68
2021/12/05 05:11:04;;;;;;;4.45;1.60;;;2.40;99.90;;;;;;5091717;28;20298;-68
2021/12/05 05:13:32;;;;;;;3.47;1.45;;;2.40;99.90;;;;;;5092372;28;20215;-67
2021/12/05 05:15:59;;;;;;;2.47;1.45;;;2.30;99.90;;;;;;5092218;28;20278;-68
2021/12/05 05:18:33;;;;;;;3.90;1.60;;;2.30;99.90;;;;;;5092454;28;20202;-68
2021/12/05 05:21:08;;;;;;;2.38;1.20;;;2.20;99.90;;;;;;5092011;28;20199;-68
2021/12/05 05:23:46;;;;;;;2.33;1.20;;;2.10;99.90;;;;;;5092185;28;20227;-68
2021/12/05 05:26:46;;;;;;;3.45;1.40;;;2.10;99.90;;;;;;5091915;28;20206;-67
2021/12/05 05:29:33;;;;;;;2.40;2.00;;;2.00;99.90;;;;;;5091507;28;20824;-68
2021/12/05 05:40:31;;;;;;;5.35;1.52;;;1.80;99.90;;;;;;5082645;28;20571;-68
2021/12/05 05:43:29;;;;;;;1.98;1.23;;;1.70;99.90;;;;;;5080638;28;20215;-68
2021/12/05 05:46:05;;;;;;;3.55;1.33;;;1.70;99.90;;;;;;5082141;28;20687;-68
2021/12/05 05:48:37;;;;;;;3.80;1.83;;;1.70;99.90;;;;;;5071119;28;20206;-68
2021/12/05 05:51:06;;;;;;;2.60;1.55;;;1.70;99.90;;;;;;5071249;28;20200;-68
2021/12/05 05:53:33;;;;;;;4.93;1.58;;;1.60;99.90;;;;;;5071247;28;20224;-68
2021/12/05 05:56:01;;;;;;;3.83;1.65;;;1.60;99.90;;;;;;5071486;28;20286;-67
2021/12/05 05:58:39;;;;;;;2.40;1.30;;;1.60;99.90;;;;;;5071173;28;20208;-68
2021/12/05 06:01:09;;;;;;;1.90;1.50;;;1.60;99.90;;;;;;5071273;28;20235;-67
2021/12/05 06:03:35;;;;;;;1.75;1.30;;;1.50;99.90;;;;;;5070973;28;20777;-67
2021/12/05 06:06:05;;;;;;;3.23;1.30;;;1.50;99.90;;;;;;5071555;28;20287;-67
2021/12/05 06:08:34;;;;;;;1.80;1.35;;;1.50;99.90;;;;;;5071502;28;20454;-67
2021/12/05 06:11:04;;;;;;;4.55;1.50;;;1.50;99.90;;;;;;5076073;28;20659;-67
2021/12/05 06:13:35;;;;;;;2.38;1.52;;;1.50;99.90;;;;;;5081787;28;20226;-67
2021/12/05 06:16:02;;;;;;;2.35;1.38;;;1.40;99.90;;;;;;5080222;28;20215;-66
2021/12/05 06:18:29;;;;;;;1.88;1.30;;;1.40;99.90;;;;;;5072052;28;20204;-67
2021/12/05 06:20:57;;;;;;;2.05;1.30;;;1.40;99.90;;;;;;5070429;28;20250;-67
2021/12/05 06:23:24;;;;;;;2.55;1.52;;;1.40;99.90;;;;;;5070972;28;20282;-67
2021/12/05 06:25:52;;;;;;;1.75;1.23;;;1.40;99.90;;;;;;5070889;28;20200;-67
2021/12/05 06:28:35;;;;;;;2.05;1.30;;;1.40;99.90;;;;;;5071143;28;20226;-67
2021/12/05 06:31:15;;;;;;;4.32;1.75;;;1.40;99.90;;;;;;5069989;28;20622;-67
2021/12/05 06:39:27;;;;;;;3.38;1.92;;;1.70;99.90;;;;;;5081695;28;20198;-67
2021/12/05 06:42:20;;;;;;;7.55;1.77;;;1.70;99.90;;;;;;5079802;28;20201;-69
2021/12/05 06:47:33;;;;;;;2.75;1.33;;;1.50;99.90;;;;;;5080914;28;20334;-69
2021/12/05 06:50:01;;;;;;;3.50;1.95;;;1.50;99.90;;;;;;5078999;28;20203;-69
2021/12/05 06:52:28;;;;;;;3.35;1.52;;;1.50;99.90;;;;;;5078780;28;20279;-69
2021/12/05 06:54:55;;;;;;;3.28;1.25;;;1.50;99.90;;;;;;5078977;28;20219;-68
2021/12/05 06:57:22;;;;;;;3.92;1.65;;;1.50;99.90;;;;;;5080707;28;20195;-68
2021/12/05 06:59:49;;;;;;;5.70;2.00;;;1.40;99.90;;;;;;5078610;28;20192;-68
2021/12/05 07:02:18;;;;;;;1.73;1.63;;;1.40;99.90;;;;;;5077552;28;20192;-68
2021/12/05 07:05:02;;;;;;;3.83;1.58;;;1.40;99.90;;;;;;5078527;28;20223;-67
2021/12/05 07:07:32;;;;;;;2.08;1.30;;;1.40;99.90;;;;;;5078802;28;20196;-68
2021/12/05 07:10:00;;;;;;;8.80;1.83;;;1.40;99.90;;;;;;5078113;28;20235;-68
2021/12/05 07:13:24;;;;;;;1.88;1.45;;;1.30;99.90;;;;;;5079440;28;20658;-68
2021/12/05 07:15:47;;;;;;;3.17;1.35;;;1.30;99.90;;;;;;5078440;28;20278;-68
2021/12/05 07:21:06;;;;;;;3.20;1.17;;;1.40;99.90;;;;;;5079433;28;20228;-68
2021/12/05 07:23:46;;;;;;;2.83;1.10;;;1.40;99.90;;;;;;5079470;28;20228;-68
2021/12/05 07:26:18;;;;;;;2.53;2.00;;;1.40;99.90;;;;;;5080487;28;20263;-67
2021/12/05 07:42:29;;;;;;;1.38;1.15;;;1.30;99.90;;;;;;5078498;28;20208;-68
2021/12/05 07:45:00;;;;;;;5.40;2.20;;;1.40;99.90;;;;;;5079613;28;20217;-68
2021/12/05 07:47:30;;;;;;;2.67;1.40;;;1.40;99.90;;;;;;5136491;22;20212;-93
2021/12/05 07:50:01;;;;;;;4.78;1.90;;;1.50;99.90;;;;;;5091132;28;20177;-95
2021/12/05 07:52:31;;;;;;;2.45;1.95;;;1.50;99.90;;;;;;5089412;28;20209;-93
2021/12/05 07:55:07;;;;;;;2.38;1.23;;;1.60;99.90;;;;;;5091345;28;20275;-93
2021/12/05 08:15:15;;;;;;;6.20;1.40;;;5.20;99.90;;;;;;5091773;28;20648;-71
2021/12/05 08:17:50;;;;;;;3.05;1.48;;;5.20;99.90;;;;;;5091448;28;20195;-71
2021/12/05 08:20:17;;;;;;;2.05;1.20;;;5.20;99.90;;;;;;5091176;28;20204;-71
2021/12/05 08:22:45;;;;;;;5.80;2.25;;;5.50;99.90;;;;;;5091316;28;20280;-71
2021/12/05 08:25:15;;;;;;;2.38;1.40;;;6.10;99.90;;;;;;5093330;28;20223;-71
2021/12/05 08:27:45;;;;;;;5.75;1.80;;;6.50;99.90;;;;;;5092213;28;20212;-71
2021/12/05 08:30:21;;;;;;;2.55;1.35;;;7.00;99.90;;;;;;5092193;28;20624;-70
2021/12/05 08:33:07;;;;;;;2.38;1.58;;;7.30;99.90;;;;;;5090995;28;20654;-70
2021/12/05 08:36:00;;;;;;;2.75;1.58;;;7.20;99.90;;;;;;5090824;28;20219;-73
2021/12/05 08:41:38;;;;;;;2.38;1.55;;;7.20;99.90;;;;;;5070377;28;20231;-73
2021/12/05 09:20:03;;;;;;;3.10;1.30;;;4.50;99.90;;;;;;5088772;28;20273;-71
2021/12/05 09:20:48;;;;;;;4.07;1.40;;;6.40;99.90;;;;;;5058114;28;20572;-69
2021/12/05 10:02:22;;;;;;;2.10;1.20;;;14.00;99.20;;;;;;5090210;28;20574;-75
2021/12/05 10:07:54;;;;;;;1.63;1.50;;;17.20;95.70;;;;;;5089392;28;20449;-75
2021/12/05 10:10:32;;;;;;;1.90;1.40;;;18.20;94.60;;;;;;5090214;28;20458;-75
2021/12/05 10:13:14;;;;;;;2.77;1.30;;;17.10;94.90;;;;;;5089827;28;20857;-75
2021/12/05 10:15:55;;;;;;;1.90;1.30;;;15.40;95.50;;;;;;5090257;28;20508;-75
2021/12/05 10:18:57;;;;;;;5.17;1.50;;;13.90;96.40;;;;;;5089469;28;20464;-74
2021/12/05 10:38:17;;;;;;;1.65;1.23;;;10.80;99.90;;;;;;5059995;28;20283;-73
2021/12/05 10:40:53;;;;;;;2.35;1.58;;;12.00;99.90;;;;;;5069795;28;20562;-73
2021/12/05 10:43:22;;;;;;;2.70;1.42;;;11.40;99.90;;;;;;5068224;28;20224;-73
2021/12/05 10:45:52;;;;;;;3.58;1.10;;;12.80;99.80;;;;;;5084149;28;20207;-73
2021/12/05 10:48:24;;;;;;;2.28;1.35;;;14.30;96.40;;;;;;5084883;28;20579;-73
2021/12/05 10:50:54;;;;;;;2.70;1.70;;;15.10;96.70;;;;;;5088359;28;20211;-73
2021/12/05 10:53:32;;;;;;;2.10;1.40;;;14.80;96.70;;;;;;5089125;28;20216;-73
2021/12/05 10:56:03;;;;;;;1.83;1.25;;;13.90;96.90;;;;;;5078244;28;20247;-73
2021/12/05 10:58:36;;;;;;;1.70;1.10;;;12.80;97.30;;;;;;5089226;28;20669;-73
2021/12/05 11:01:09;;;;;;;2.45;1.25;;;11.30;98.60;;;;;;5088616;28;20218;-73
2021/12/05 11:03:38;;;;;;;2.13;1.40;;;10.20;99.90;;;;;;5088262;28;20219;-73
2021/12/05 11:06:18;;;;;;;2.08;1.25;;;10.20;99.90;;;;;;5089358;28;20229;-73
2021/12/05 11:08:51;;;;;;;3.05;1.63;;;10.00;99.90;;;;;;5088777;28;20204;-73
2021/12/05 11:11:18;;;;;;;1.30;1.10;;;9.60;99.90;;;;;;5088977;28;20682;-73
2021/12/05 11:13:46;;;;;;;2.30;1.27;;;9.20;99.90;;;;;;5089666;28;20714;-73
2021/12/05 11:16:35;;;;;;;2.40;1.25;;;9.10;99.90;;;;;;5089242;28;20273;-73
2021/12/05 11:19:02;;;;;;;1.83;1.17;;;9.10;99.90;;;;;;5091148;28;20211;-73
2021/12/05 11:21:32;;;;;;;1.88;1.13;;;9.90;99.90;;;;;;5092937;28;20206;-73
2021/12/05 11:24:10;;;;;;;2.15;1.10;;;10.90;99.90;;;;;;5093686;28;20246;-73
2021/12/05 11:26:37;;;;;;;2.85;1.17;;;11.00;99.40;;;;;;5093302;28;20206;-72
2021/12/05 11:29:04;;;;;;;1.27;1.00;;;11.50;99.90;;;;;;5093604;28;20210;-73
2021/12/05 11:31:33;;;;;;;2.00;1.40;;;11.70;99.90;;;;;;5092889;28;20202;-73
2021/12/05 11:34:00;;;;;;;3.05;1.27;;;11.20;99.90;;;;;;5092940;28;20219;-73
2021/12/05 11:36:30;;;;;;;1.70;1.30;;;9.90;99.90;;;;;;5093346;28;20593;-73
2021/12/05 11:38:57;;;;;;;1.67;1.10;;;8.60;99.90;;;;;;5093187;28;20200;-73
2021/12/05 11:41:27;;;;;;;1.50;1.10;;;8.00;99.90;;;;;;5092395;28;20211;-73
2021/12/05 11:43:55;;;;;;;2.88;1.48;;;7.40;99.90;;;;;;5093452;28;20220;-73
2021/12/05 11:46:27;;;;;;;2.75;1.40;;;7.00;99.90;;;;;;5092789;28;20200;-72
2021/12/05 11:48:56;;;;;;;2.20;1.67;;;6.70;99.90;;;;;;5093241;28;20199;-72
2021/12/05 11:51:29;;;;;;;1.90;1.23;;;6.80;99.90;;;;;;5092415;28;20216;-72
2021/12/05 11:53:59;;;;;;;2.60;1.38;;;6.70;99.90;;;;;;5089124;28;20219;-72
2021/12/05 11:56:41;;;;;;;2.03;1.50;;;6.50;99.90;;;;;;5076787;28;20595;-72
2021/12/05 11:59:13;;;;;;;2.25;1.30;;;6.80;99.90;;;;;;5071996;28;20204;-73
2021/12/05 12:01:46;;;;;;;1.40;1.00;;;7.00;99.90;;;;;;5072039;28;20206;-73
2021/12/05 12:04:16;;;;;;;1.58;1.40;;;7.00;99.90;;;;;;5072609;28;20895;-73
2021/12/05 12:06:45;;;;;;;1.60;1.42;;;6.80;99.90;;;;;;5072957;28;20291;-73
2021/12/05 12:09:12;;;;;;;1.38;1.10;;;6.60;99.90;;;;;;5072089;28;20744;-73
2021/12/05 12:11:40;;;;;;;2.05;1.27;;;6.90;99.90;;;;;;5073002;28;20204;-72
2021/12/05 12:14:06;;;;;;;1.65;1.48;;;7.50;99.90;;;;;;5073399;28;20707;-71
2021/12/05 12:16:34;;;;;;;2.95;1.40;;;7.70;99.90;;;;;;5072890;28;20223;-74
2021/12/05 12:19:02;;;;;;;2.65;1.20;;;7.60;99.90;;;;;;5074456;28;20224;-73
2021/12/05 12:21:38;;;;;;;1.45;1.13;;;7.60;99.90;;;;;;5072076;28;20207;-73
2021/12/05 12:24:06;;;;;;;2.33;1.50;;;8.10;99.90;;;;;;5071486;28;20227;-73
2021/12/05 12:26:32;;;;;;;1.42;1.33;;;8.70;99.90;;;;;;5072016;28;20204;-73
2021/12/05 12:29:02;;;;;;;3.63;1.25;;;8.90;99.90;;;;;;5071167;28;20201;-73
2021/12/05 12:31:34;;;;;;;1.75;1.35;;;9.40;99.90;;;;;;5070833;28;20204;-73
2021/12/05 12:34:05;;;;;;;2.05;1.40;;;9.70;99.90;;;;;;5072227;28;20254;-74
2021/12/05 12:36:34;;;;;;;1.27;1.10;;;9.90;99.90;;;;;;5072168;28;20593;-73
2021/12/05 12:39:04;;;;;;;1.52;1.05;;;10.10;99.90;;;;;;5072405;28;20576;-74
2021/12/05 12:41:33;;;;;;;1.20;1.00;;;9.40;99.90;;;;;;5071737;28;20211;-74
2021/12/05 12:44:03;;;;;;;2.25;1.00;;;8.50;99.90;;;;;;5077814;28;20218;-73
2021/12/05 12:46:34;;;;;;;1.58;1.00;;;8.20;99.90;;;;;;5092232;28;20196;-73
2021/12/05 12:49:30;;;;;;;1.55;1.30;;;8.20;99.90;;;;;;5092322;28;20234;-72
2021/12/05 12:52:02;;;;;;;1.20;1.10;;;8.10;99.90;;;;;;5092525;28;20199;-73
2021/12/05 12:54:31;;;;;;;1.35;0.90;;;7.60;99.90;;;;;;5092358;28;20224;-73
2021/12/05 12:57:09;;;;;;;1.30;1.10;;;7.50;99.90;;;;;;5092354;28;20220;-73
2021/12/05 12:59:38;;;;;;;1.55;1.00;;;7.30;99.90;;;;;;5093766;28;20215;-73
2021/12/05 13:02:36;;;;;;;2.00;1.00;;;6.90;99.90;;;;;;5092325;28;20195;-73
2021/12/05 13:05:34;;;;;;;1.15;0.88;;;6.80;99.90;;;;;;5091892;28;20208;-73
2021/12/05 13:11:00;;;;;;;1.30;0.90;;;6.60;99.90;;;;;;5091943;28;20203;-73
2021/12/05 13:13:28;;;;;;;1.33;0.93;;;6.30;99.90;;;;;;5091469;28;20226;-73
2021/12/05 13:15:59;;;;;;;2.63;1.30;;;6.10;99.90;;;;;;5091703;28;20226;-73
2021/12/05 13:18:30;;;;;;;2.00;1.10;;;6.00;99.90;;;;;;5090757;28;20199;-72
2021/12/05 13:21:05;;;;;;;1.15;1.05;;;5.90;99.90;;;;;;5082568;28;20197;-73
2021/12/05 13:23:39;;;;;;;3.20;0.95;;;6.00;99.90;;;;;;5072947;28;20223;-74
2021/12/05 13:26:19;;;;;;;1.45;0.90;;;6.20;99.90;;;;;;5070955;28;20196;-74
2021/12/05 13:28:48;;;;;;;1.10;1.00;;;6.10;99.90;;;;;;5071360;28;20254;-74
2021/12/05 13:31:38;;;;;;;1.67;1.10;;;6.10;99.90;;;;;;5070648;28;20188;-73
2021/12/05 13:34:30;;;;;;;1.35;0.80;;;6.10;99.90;;;;;;5071275;28;20734;-74
2021/12/05 13:37:20;;;;;;;2.38;1.05;;;5.90;99.90;;;;;;5071396;28;20209;-72
2021/12/05 13:39:49;;;;;;;2.25;1.60;;;5.70;99.90;;;;;;5082781;28;20196;-73
2021/12/05 13:42:22;;;;;;;1.30;1.20;;;5.60;99.90;;;;;;5079154;28;20571;-73
2021/12/05 13:45:08;;;;;;;1.20;1.02;;;5.50;99.90;;;;;;5080234;28;20582;-73
2021/12/05 13:47:39;;;;;;;3.47;1.10;;;5.40;99.90;;;;;;5116780;22;20203;-94
2021/12/05 13:50:38;;;;;;;3.63;1.40;;;5.40;99.90;;;;;;5109092;28;20184;-94
2021/12/05 13:53:43;;;;;;;1.65;1.15;;;5.30;99.90;;;;;;5086470;28;20260;-94
2021/12/05 13:56:21;;;;;;;3.72;1.48;;;5.30;99.90;;;;;;5106746;28;20215;-95
2021/12/05 13:58:52;;;;;;;1.85;1.50;;;5.20;99.90;;;;;;5106529;28;20704;-95
2021/12/05 14:01:23;;;;;;;1.73;1.33;;;5.10;99.90;;;;;;5110527;28;20199;-94
2021/12/05 14:04:01;;;;;;;1.55;1.17;;;5.10;99.90;;;;;;5099865;28;20294;-94
2021/12/05 14:06:42;;;;;;;1.40;1.23;;;5.10;99.90;;;;;;5102948;28;20228;-95
2021/12/05 14:09:17;;;;;;;1.70;1.35;;;5.10;99.90;;;;;;5108680;28;20199;-93
2021/12/05 14:11:54;;;;;;;4.22;1.60;;;5.10;99.90;;;;;;5097543;28;20224;-94
2021/12/05 14:14:25;;;;;;;1.55;1.30;;;5.20;99.90;;;;;;5107206;28;20195;-94
2021/12/05 14:16:55;;;;;;;1.38;1.20;;;5.30;99.90;;;;;;5108098;28;20291;-93
2021/12/05 14:19:27;;;;;;;1.42;1.20;;;5.30;99.90;;;;;;5099907;28;20228;-93
2021/12/05 14:21:57;;;;;;;1.50;1.20;;;5.40;99.90;;;;;;5097729;28;20192;-94
2021/12/05 14:24:29;;;;;;;1.50;1.30;;;5.50;99.90;;;;;;5099971;28;20200;-95
2021/12/05 14:27:00;;;;;;;1.90;1.20;;;5.50;99.90;;;;;;5092280;28;20276;-95
2021/12/05 14:29:31;;;;;;;2.47;1.42;;;5.50;99.90;;;;;;5093745;28;20235;-94
2021/12/05 14:34:44;;;;;;;2.15;1.70;;;5.50;99.90;;;;;;5116185;28;20191;-96
2021/12/05 14:37:16;;;;;;;2.33;1.95;;;5.40;99.90;;;;;;5098071;28;20280;-96
2021/12/05 14:39:50;;;;;;;2.42;1.65;;;5.30;99.90;;;;;;5110772;28;20196;-93
2021/12/05 14:42:20;;;;;;;2.47;1.95;;;5.30;99.90;;;;;;5111493;28;20202;-94
2021/12/05 14:44:55;;;;;;;4.13;2.25;;;5.20;99.90;;;;;;5111069;28;20245;-94
2021/12/05 14:47:28;;;;;;;1.70;1.60;;;5.10;99.90;;;;;;5111113;28;20233;-94
2021/12/05 14:50:00;;;;;;;1.75;1.55;;;5.00;99.90;;;;;;5111001;28;20196;-93
2021/12/05 14:52:30;;;;;;;2.20;1.65;;;4.90;99.90;;;;;;5112589;28;20238;-94
2021/12/05 14:55:01;;;;;;;1.77;1.65;;;4.80;99.90;;;;;;5115953;28;20227;-94
2021/12/05 14:57:32;;;;;;;2.28;1.60;;;4.60;99.90;;;;;;5113194;28;20223;-94
2021/12/05 15:00:04;;;;;;;2.50;1.60;;;4.60;99.90;;;;;;5113729;28;20200;-95
2021/12/05 15:02:31;;;;;;;2.20;1.50;;;4.50;99.90;;;;;;5111701;28;20215;-94
2021/12/05 15:04:59;;;;;;;1.80;1.38;;;4.50;99.90;;;;;;5113724;28;20194;-94
2021/12/05 15:07:27;;;;;;;2.53;1.55;;;4.40;99.90;;;;;;5107885;28;20339;-92
2021/12/05 15:09:57;;;;;;;4.78;1.58;;;4.30;99.90;;;;;;5117903;28;20196;-92
2021/12/05 15:12:28;;;;;;;1.77;1.27;;;4.30;99.90;;;;;;5107166;28;20203;-94
2021/12/05 15:15:01;;;;;;;1.75;1.42;;;4.20;99.90;;;;;;5103072;28;20207;-93
2021/12/05 15:17:30;;;;;;;2.83;1.70;;;4.10;99.90;;;;;;5091322;28;20282;-93
2021/12/05 15:19:59;;;;;;;2.70;1.70;;;4.00;99.90;;;;;;5105066;28;20223;-93
2021/12/05 15:22:28;;;;;;;2.40;1.98;;;3.90;99.90;;;;;;5102477;28;20208;-93
2021/12/05 15:24:57;;;;;;;3.10;1.83;;;3.90;99.90;;;;;;5104149;28;20217;-92
2021/12/05 15:27:31;;;;;;;1.70;1.60;;;3.90;99.90;;;;;;5103610;28;20230;-92
2021/12/05 15:30:01;;;;;;;4.03;1.80;;;3.90;99.90;;;;;;5102547;28;20270;-92
2021/12/05 15:32:30;;;;;;;2.50;1.58;;;3.80;99.90;;;;;;5107060;28;20212;-93
2021/12/05 15:35:00;;;;;;;1.95;1.63;;;3.80;99.90;;;;;;5107156;28;20732;-92
2021/12/05 15:37:28;;;;;;;2.20;1.70;;;3.70;99.90;;;;;;5111029;28;20760;-93
2021/12/05 15:39:57;;;;;;;3.40;1.77;;;3.70;99.90;;;;;;5107120;28;20201;-93
2021/12/05 15:42:28;;;;;;;2.08;1.38;;;3.70;99.90;;;;;;5097149;28;20210;-93
2021/12/05 15:44:59;;;;;;;2.95;1.98;;;3.60;99.90;;;;;;5100789;28;20271;-92
2021/12/05 15:47:28;;;;;;;2.63;2.08;;;3.60;99.90;;;;;;5090710;28;20285;-93
2021/12/05 15:50:02;;;;;;;2.90;1.88;;;3.60;99.90;;;;;;5107213;28;20223;-92
2021/12/05 15:52:34;;;;;;;3.10;1.60;;;3.50;99.90;;;;;;5110217;28;20219;-92
2021/12/05 15:55:06;;;;;;;2.40;2.20;;;3.50;99.90;;;;;;5114286;28;20207;-94
2021/12/05 15:57:36;;;;;;;2.90;2.08;;;3.40;99.90;;;;;;5099579;28;20224;-93
2021/12/05 16:00:13;;;;;;;3.85;2.28;;;3.40;99.90;;;;;;5106906;28;20204;-94
2021/12/05 16:02:46;;;;;;;4.95;2.40;;;3.40;99.90;;;;;;5109743;28;20302;-93
2021/12/05 16:05:17;;;;;;;2.83;1.90;;;3.30;99.90;;;;;;5111526;28;20207;-93
2021/12/05 16:07:44;;;;;;;3.83;1.98;;;3.30;99.90;;;;;;5114818;28;20215;-95
2021/12/05 16:10:43;;;;;;;2.10;1.90;;;3.20;99.90;;;;;;5099657;28;20223;-93
2021/12/05 16:13:15;;;;;;;3.63;2.25;;;3.20;99.90;;;;;;5056173;28;20200;-93
2021/12/05 16:15:47;;;;;;;3.70;2.70;;;3.20;99.90;;;;;;5106255;28;20219;-92
2021/12/05 16:18:16;;;;;;;3.13;2.60;;;3.10;99.90;;;;;;5100871;28;20204;-93
2021/12/05 16:20:45;;;;;;;3.67;3.35;;;3.10;99.90;;;;;;5116821;27;20474;-94
2021/12/05 16:23:21;;;;;;;4.95;3.13;;;3.10;99.90;;;;;;5116803;28;20227;-92
2021/12/05 16:26:09;;;;;;;6.22;3.70;;;3.10;99.90;;;;;;5098497;28;20184;-94
2021/12/05 16:28:40;;;;;;;7.00;3.95;;;3.10;99.90;;;;;;5098810;28;20211;-93
2021/12/05 16:31:18;;;;;;;3.78;3.15;;;3.00;99.90;;;;;;5113980;28;20199;-93
2021/12/05 16:34:00;;;;;;;4.63;2.90;;;3.00;99.90;;;;;;5115175;28;20215;-95
2021/12/05 16:36:33;;;;;;;6.45;3.38;;;2.90;99.90;;;;;;5083172;28;20855;-92
2021/12/05 16:39:09;;;;;;;4.07;2.70;;;2.90;99.90;;;;;;5105758;28;20218;-95
2021/12/05 16:41:47;;;;;;;5.22;2.95;;;2.80;99.90;;;;;;5107692;28;20203;-93
2021/12/05 16:44:19;;;;;;;5.18;3.00;;;2.80;99.90;;;;;;5097160;28;20230;-93
2021/12/05 16:46:49;;;;;;;5.15;3.40;;;2.70;99.90;;;;;;5086429;28;20224;-94
2021/12/05 16:49:20;;;;;;;5.88;3.47;;;2.70;99.90;;;;;;5099109;28;20294;-92
2021/12/05 16:51:51;;;;;;;16.92;7.88;;;2.60;99.90;;;;;;5105176;28;20200;-94
2021/12/05 16:54:22;;;;;;;24.30;9.30;;;2.60;99.90;;;;;;5091521;22;20228;-68
2021/12/05 16:56:55;;;;;;;17.20;8.65;;;2.60;99.90;;;;;;5069866;28;20208;-67
2021/12/05 16:59:28;;;;;;;35.08;13.20;;;2.50;99.90;;;;;;5069833;28;20309;-67
2021/12/05 17:02:10;;;;;;;12.27;5.57;;;2.50;99.90;;;;;;5069436;28;20683;-67
2021/12/05 17:04:44;;;;;;;8.60;3.70;;;2.50;99.90;;;;;;5069066;28;20231;-67
2021/12/05 17:07:14;;;;;;;4.57;2.90;;;2.40;99.90;;;;;;5069389;28;20200;-67
2021/12/05 17:09:42;;;;;;;8.43;2.60;;;2.40;99.90;;;;;;5069254;28;20208;-68
2021/12/05 17:12:26;;;;;;;3.25;2.30;;;2.30;99.90;;;;;;5069003;28;20216;-66
2021/12/05 17:15:10;;;;;;;7.30;4.22;;;2.30;99.90;;;;;;5069134;28;20223;-66